sensor_id;sensor_type;location;lat;lon;timestamp;temperature;humidity
77985;DHT22;67177;47.240;-1.546;2023-09-19T00:02:03;17.50;73.30
77985;DHT22;67177;47.240;-1.546;2023-09-19T00:04:32;17.50;73.30
77985;DHT22;67177;47.240;-1.546;2023-09-19T00:06:58;17.50;73.30
77985;DHT22;67177;47.240;-1.546;2023-09-19T00:09:24;17.50;73.20
77985;DHT22;67177;47.240;-1.546;2023-09-19T00:11:53;17.40;73.30
77985;DHT22;67177;47.240;-1.546;2023-09-19T00:14:19;17.40;73.30
77985;DHT22;67177;47.240;-1.546;2023-09-19T00:16:45;17.40;73.40
77985;DHT22;67177;47.240;-1.546;2023-09-19T00:19:11;17.40;73.50
77985;DHT22;67177;47.240;-1.546;2023-09-19T00:21:37;17.30;73.50
77985;DHT22;67177;47.240;-1.546;2023-09-19T00:24:04;17.30;73.50
77985;DHT22;67177;47.240;-1.546;2023-09-19T00:26:32;17.30;73.60
77985;DHT22;67177;47.240;-1.546;2023-09-19T00:28:58;17.30;73.60
77985;DHT22;67177;47.240;-1.546;2023-09-19T00:31:30;17.30;73.60
77985;DHT22;67177;47.240;-1.546;2023-09-19T00:33:56;17.20;73.70
77985;DHT22;67177;47.240;-1.546;2023-09-19T00:36:29;17.20;73.60
77985;DHT22;67177;47.240;-1.546;2023-09-19T00:38:55;17.20;73.60
77985;DHT22;67177;47.240;-1.546;2023-09-19T00:41:20;17.20;73.60
77985;DHT22;67177;47.240;-1.546;2023-09-19T00:43:46;17.20;73.70
77985;DHT22;67177;47.240;-1.546;2023-09-19T00:46:17;17.10;73.80
77985;DHT22;67177;47.240;-1.546;2023-09-19T00:48:43;17.10;73.70
77985;DHT22;67177;47.240;-1.546;2023-09-19T00:51:10;17.10;73.70
77985;DHT22;67177;47.240;-1.546;2023-09-19T00:53:36;17.10;73.70
77985;DHT22;67177;47.240;-1.546;2023-09-19T00:56:04;17.10;73.70
77985;DHT22;67177;47.240;-1.546;2023-09-19T00:58:34;17.10;73.80
77985;DHT22;67177;47.240;-1.546;2023-09-19T01:01:01;17.00;73.80
77985;DHT22;67177;47.240;-1.546;2023-09-19T01:03:28;17.00;73.90
77985;DHT22;67177;47.240;-1.546;2023-09-19T01:05:54;17.00;73.80
77985;DHT22;67177;47.240;-1.546;2023-09-19T01:08:20;17.00;73.80
77985;DHT22;67177;47.240;-1.546;2023-09-19T01:11:20;17.00;73.80
77985;DHT22;67177;47.240;-1.546;2023-09-19T01:14:07;16.90;73.70
77985;DHT22;67177;47.240;-1.546;2023-09-19T01:16:48;16.90;73.60
77985;DHT22;67177;47.240;-1.546;2023-09-19T01:22:25;16.90;73.50
77985;DHT22;67177;47.240;-1.546;2023-09-19T01:28:20;16.80;73.60
77985;DHT22;67177;47.240;-1.546;2023-09-19T01:30:52;16.80;73.60
77985;DHT22;67177;47.240;-1.546;2023-09-19T01:33:20;16.80;73.50
77985;DHT22;67177;47.240;-1.546;2023-09-19T01:35:46;16.70;73.40
77985;DHT22;67177;47.240;-1.546;2023-09-19T01:38:12;16.70;73.50
77985;DHT22;67177;47.240;-1.546;2023-09-19T01:40:44;16.70;73.50
77985;DHT22;67177;47.240;-1.546;2023-09-19T01:43:22;16.70;73.50
77985;DHT22;67177;47.240;-1.546;2023-09-19T01:46:13;16.70;73.40
77985;DHT22;67177;47.240;-1.546;2023-09-19T01:51:35;16.70;73.40
77985;DHT22;67177;47.240;-1.546;2023-09-19T01:54:07;16.70;73.40
77985;DHT22;67177;47.240;-1.546;2023-09-19T01:56:48;16.70;73.30
77985;DHT22;67177;47.240;-1.546;2023-09-19T01:59:27;16.70;73.40
77985;DHT22;67177;47.240;-1.546;2023-09-19T02:01:54;16.70;73.40
77985;DHT22;67177;47.240;-1.546;2023-09-19T02:04:20;16.70;73.50
77985;DHT22;67177;47.240;-1.546;2023-09-19T02:06:46;16.70;73.50
77985;DHT22;67177;47.240;-1.546;2023-09-19T02:09:15;16.70;73.60
77985;DHT22;67177;47.240;-1.546;2023-09-19T02:11:41;16.70;73.70
77985;DHT22;67177;47.240;-1.546;2023-09-19T02:14:07;16.70;73.70
77985;DHT22;67177;47.240;-1.546;2023-09-19T02:16:34;16.70;73.60
77985;DHT22;67177;47.240;-1.546;2023-09-19T02:19:00;16.60;73.80
77985;DHT22;67177;47.240;-1.546;2023-09-19T02:21:26;16.60;73.70
77985;DHT22;67177;47.240;-1.546;2023-09-19T02:23:55;16.60;73.70
77985;DHT22;67177;47.240;-1.546;2023-09-19T02:26:21;16.60;73.70
77985;DHT22;67177;47.240;-1.546;2023-09-19T02:28:47;16.60;73.60
77985;DHT22;67177;47.240;-1.546;2023-09-19T02:31:13;16.60;73.70
77985;DHT22;67177;47.240;-1.546;2023-09-19T02:33:38;16.60;73.80
77985;DHT22;67177;47.240;-1.546;2023-09-19T02:36:04;16.60;73.80
77985;DHT22;67177;47.240;-1.546;2023-09-19T02:38:30;16.60;73.90
77985;DHT22;67177;47.240;-1.546;2023-09-19T02:40:56;16.50;73.90
77985;DHT22;67177;47.240;-1.546;2023-09-19T02:43:22;16.50;73.90
77985;DHT22;67177;47.240;-1.546;2023-09-19T02:45:49;16.50;74.00
77985;DHT22;67177;47.240;-1.546;2023-09-19T02:48:16;16.50;74.00
77985;DHT22;67177;47.240;-1.546;2023-09-19T02:50:42;16.50;74.00
77985;DHT22;67177;47.240;-1.546;2023-09-19T02:53:08;16.50;73.90
77985;DHT22;67177;47.240;-1.546;2023-09-19T02:55:36;16.50;73.80
77985;DHT22;67177;47.240;-1.546;2023-09-19T02:58:03;16.50;73.90
77985;DHT22;67177;47.240;-1.546;2023-09-19T03:00:30;16.40;74.00
77985;DHT22;67177;47.240;-1.546;2023-09-19T03:02:56;16.40;74.10
77985;DHT22;67177;47.240;-1.546;2023-09-19T03:05:23;16.40;74.30
77985;DHT22;67177;47.240;-1.546;2023-09-19T03:07:49;16.40;74.30
77985;DHT22;67177;47.240;-1.546;2023-09-19T03:10:19;16.40;74.30
77985;DHT22;67177;47.240;-1.546;2023-09-19T03:12:46;16.40;74.20
77985;DHT22;67177;47.240;-1.546;2023-09-19T03:15:11;16.40;74.10
77985;DHT22;67177;47.240;-1.546;2023-09-19T03:17:37;16.40;74.10
77985;DHT22;67177;47.240;-1.546;2023-09-19T03:20:03;16.40;74.10
77985;DHT22;67177;47.240;-1.546;2023-09-19T03:22:34;16.40;74.10
77985;DHT22;67177;47.240;-1.546;2023-09-19T03:25:00;16.50;74.10
77985;DHT22;67177;47.240;-1.546;2023-09-19T03:27:26;16.50;74.10
77985;DHT22;67177;47.240;-1.546;2023-09-19T03:29:52;16.40;74.30
77985;DHT22;67177;47.240;-1.546;2023-09-19T03:32:19;16.50;74.40
77985;DHT22;67177;47.240;-1.546;2023-09-19T03:34:45;16.50;74.50
77985;DHT22;67177;47.240;-1.546;2023-09-19T03:37:14;16.50;74.50
77985;DHT22;67177;47.240;-1.546;2023-09-19T03:39:40;16.60;74.60
77985;DHT22;67177;47.240;-1.546;2023-09-19T03:42:05;16.60;74.70
77985;DHT22;67177;47.240;-1.546;2023-09-19T03:44:32;16.60;74.60
77985;DHT22;67177;47.240;-1.546;2023-09-19T03:46:58;16.60;74.60
77985;DHT22;67177;47.240;-1.546;2023-09-19T03:49:24;16.60;74.60
77985;DHT22;67177;47.240;-1.546;2023-09-19T03:51:50;16.60;74.60
77985;DHT22;67177;47.240;-1.546;2023-09-19T03:54:15;16.60;74.60
77985;DHT22;67177;47.240;-1.546;2023-09-19T03:56:42;16.60;74.60
77985;DHT22;67177;47.240;-1.546;2023-09-19T03:59:09;16.60;74.70
77985;DHT22;67177;47.240;-1.546;2023-09-19T04:01:35;16.60;74.70
77985;DHT22;67177;47.240;-1.546;2023-09-19T04:04:00;16.60;74.70
77985;DHT22;67177;47.240;-1.546;2023-09-19T04:06:34;16.70;74.70
77985;DHT22;67177;47.240;-1.546;2023-09-19T04:09:03;16.70;74.60
77985;DHT22;67177;47.240;-1.546;2023-09-19T04:11:30;16.70;74.60
77985;DHT22;67177;47.240;-1.546;2023-09-19T04:13:56;16.70;74.60
77985;DHT22;67177;47.240;-1.546;2023-09-19T04:16:22;16.70;74.60
77985;DHT22;67177;47.240;-1.546;2023-09-19T04:18:48;16.70;74.50
77985;DHT22;67177;47.240;-1.546;2023-09-19T04:21:14;16.70;74.70
77985;DHT22;67177;47.240;-1.546;2023-09-19T04:23:39;16.70;74.70
77985;DHT22;67177;47.240;-1.546;2023-09-19T04:26:06;16.70;74.80
77985;DHT22;67177;47.240;-1.546;2023-09-19T04:28:32;16.70;74.80
77985;DHT22;67177;47.240;-1.546;2023-09-19T04:31:00;16.80;74.80
77985;DHT22;67177;47.240;-1.546;2023-09-19T04:33:26;16.70;74.90
77985;DHT22;67177;47.240;-1.546;2023-09-19T04:35:53;16.70;75.00
77985;DHT22;67177;47.240;-1.546;2023-09-19T04:38:19;16.70;75.00
77985;DHT22;67177;47.240;-1.546;2023-09-19T04:40:45;16.70;74.90
77985;DHT22;67177;47.240;-1.546;2023-09-19T04:43:13;16.70;75.00
77985;DHT22;67177;47.240;-1.546;2023-09-19T04:45:39;16.70;75.10
77985;DHT22;67177;47.240;-1.546;2023-09-19T04:48:06;16.70;75.10
77985;DHT22;67177;47.240;-1.546;2023-09-19T04:50:34;16.70;75.10
77985;DHT22;67177;47.240;-1.546;2023-09-19T04:53:00;16.70;75.10
77985;DHT22;67177;47.240;-1.546;2023-09-19T04:55:27;16.70;75.20
77985;DHT22;67177;47.240;-1.546;2023-09-19T04:57:53;16.80;75.10
77985;DHT22;67177;47.240;-1.546;2023-09-19T05:00:23;16.80;75.20
77985;DHT22;67177;47.240;-1.546;2023-09-19T05:02:55;16.80;75.20
77985;DHT22;67177;47.240;-1.546;2023-09-19T05:05:22;16.80;75.30
77985;DHT22;67177;47.240;-1.546;2023-09-19T05:07:49;16.80;75.30
77985;DHT22;67177;47.240;-1.546;2023-09-19T05:10:15;16.80;75.40
77985;DHT22;67177;47.240;-1.546;2023-09-19T05:12:44;16.80;75.50
77985;DHT22;67177;47.240;-1.546;2023-09-19T05:15:14;16.90;75.50
77985;DHT22;67177;47.240;-1.546;2023-09-19T05:17:48;16.80;75.70
77985;DHT22;67177;47.240;-1.546;2023-09-19T05:20:14;16.80;75.70
77985;DHT22;67177;47.240;-1.546;2023-09-19T05:22:45;16.90;75.80
77985;DHT22;67177;47.240;-1.546;2023-09-19T05:25:12;16.90;75.90
77985;DHT22;67177;47.240;-1.546;2023-09-19T05:27:42;16.80;75.90
77985;DHT22;67177;47.240;-1.546;2023-09-19T05:30:08;16.80;75.90
77985;DHT22;67177;47.240;-1.546;2023-09-19T05:32:34;16.80;76.00
77985;DHT22;67177;47.240;-1.546;2023-09-19T05:35:00;16.80;76.10
77985;DHT22;67177;47.240;-1.546;2023-09-19T05:37:25;16.80;76.20
77985;DHT22;67177;47.240;-1.546;2023-09-19T05:39:51;16.90;76.20
77985;DHT22;67177;47.240;-1.546;2023-09-19T05:42:19;16.90;76.40
77985;DHT22;67177;47.240;-1.546;2023-09-19T05:44:44;16.90;76.20
77985;DHT22;67177;47.240;-1.546;2023-09-19T05:47:10;16.90;76.30
77985;DHT22;67177;47.240;-1.546;2023-09-19T05:49:36;16.90;76.40
77985;DHT22;67177;47.240;-1.546;2023-09-19T05:52:05;16.90;76.50
77985;DHT22;67177;47.240;-1.546;2023-09-19T05:54:31;16.90;76.60
77985;DHT22;67177;47.240;-1.546;2023-09-19T05:56:58;16.90;76.70
77985;DHT22;67177;47.240;-1.546;2023-09-19T05:59:24;16.90;76.60
77985;DHT22;67177;47.240;-1.546;2023-09-19T06:01:49;16.90;76.70
77985;DHT22;67177;47.240;-1.546;2023-09-19T06:04:17;16.90;76.70
77985;DHT22;67177;47.240;-1.546;2023-09-19T06:06:44;16.90;76.80
77985;DHT22;67177;47.240;-1.546;2023-09-19T06:09:10;16.90;76.80
77985;DHT22;67177;47.240;-1.546;2023-09-19T06:11:36;16.90;76.90
77985;DHT22;67177;47.240;-1.546;2023-09-19T06:14:02;16.90;77.00
77985;DHT22;67177;47.240;-1.546;2023-09-19T06:16:30;16.90;76.90
77985;DHT22;67177;47.240;-1.546;2023-09-19T06:18:59;16.90;76.90
77985;DHT22;67177;47.240;-1.546;2023-09-19T06:21:27;16.90;77.00
77985;DHT22;67177;47.240;-1.546;2023-09-19T06:23:53;16.90;77.00
77985;DHT22;67177;47.240;-1.546;2023-09-19T06:26:19;16.90;76.90
77985;DHT22;67177;47.240;-1.546;2023-09-19T06:28:45;16.90;77.10
77985;DHT22;67177;47.240;-1.546;2023-09-19T06:31:11;16.90;77.10
77985;DHT22;67177;47.240;-1.546;2023-09-19T06:33:37;16.90;77.10
77985;DHT22;67177;47.240;-1.546;2023-09-19T06:36:05;16.90;77.10
77985;DHT22;67177;47.240;-1.546;2023-09-19T06:38:31;16.90;77.10
77985;DHT22;67177;47.240;-1.546;2023-09-19T06:40:59;16.90;77.10
77985;DHT22;67177;47.240;-1.546;2023-09-19T06:43:26;17.00;76.90
77985;DHT22;67177;47.240;-1.546;2023-09-19T06:45:53;17.10;76.90
77985;DHT22;67177;47.240;-1.546;2023-09-19T06:48:20;17.20;76.90
77985;DHT22;67177;47.240;-1.546;2023-09-19T06:50:46;17.30;76.80
77985;DHT22;67177;47.240;-1.546;2023-09-19T06:53:13;17.40;76.60
77985;DHT22;67177;47.240;-1.546;2023-09-19T06:55:39;17.50;76.50
77985;DHT22;67177;47.240;-1.546;2023-09-19T06:58:05;17.60;76.50
77985;DHT22;67177;47.240;-1.546;2023-09-19T07:00:31;17.60;76.50
77985;DHT22;67177;47.240;-1.546;2023-09-19T07:03:04;17.60;76.60
77985;DHT22;67177;47.240;-1.546;2023-09-19T07:05:36;17.60;76.50
77985;DHT22;67177;47.240;-1.546;2023-09-19T07:08:03;17.70;76.40
77985;DHT22;67177;47.240;-1.546;2023-09-19T07:10:30;17.70;76.30
77985;DHT22;67177;47.240;-1.546;2023-09-19T07:12:59;17.80;76.20
77985;DHT22;67177;47.240;-1.546;2023-09-19T07:15:27;17.90;76.10
77985;DHT22;67177;47.240;-1.546;2023-09-19T07:17:54;18.00;76.10
77985;DHT22;67177;47.240;-1.546;2023-09-19T07:20:20;18.10;76.00
77985;DHT22;67177;47.240;-1.546;2023-09-19T07:22:46;18.20;75.90
77985;DHT22;67177;47.240;-1.546;2023-09-19T07:25:13;18.30;75.60
77985;DHT22;67177;47.240;-1.546;2023-09-19T07:27:41;18.40;75.50
77985;DHT22;67177;47.240;-1.546;2023-09-19T07:30:08;18.40;75.40
77985;DHT22;67177;47.240;-1.546;2023-09-19T07:32:34;18.30;75.30
77985;DHT22;67177;47.240;-1.546;2023-09-19T07:35:04;18.30;75.20
77985;DHT22;67177;47.240;-1.546;2023-09-19T07:37:31;18.30;75.00
77985;DHT22;67177;47.240;-1.546;2023-09-19T07:39:59;18.30;74.90
77985;DHT22;67177;47.240;-1.546;2023-09-19T07:42:26;18.30;74.70
77985;DHT22;67177;47.240;-1.546;2023-09-19T07:44:52;18.30;74.40
77985;DHT22;67177;47.240;-1.546;2023-09-19T07:47:19;18.40;74.20
77985;DHT22;67177;47.240;-1.546;2023-09-19T07:49:49;18.50;74.00
77985;DHT22;67177;47.240;-1.546;2023-09-19T07:52:15;18.50;74.00
77985;DHT22;67177;47.240;-1.546;2023-09-19T07:54:41;18.50;73.90
77985;DHT22;67177;47.240;-1.546;2023-09-19T07:57:09;18.60;73.90
77985;DHT22;67177;47.240;-1.546;2023-09-19T07:59:35;18.50;73.90
77985;DHT22;67177;47.240;-1.546;2023-09-19T08:02:04;18.50;73.80
77985;DHT22;67177;47.240;-1.546;2023-09-19T08:04:30;18.50;73.60
77985;DHT22;67177;47.240;-1.546;2023-09-19T08:06:58;18.50;73.50
77985;DHT22;67177;47.240;-1.546;2023-09-19T08:09:24;18.60;73.30
77985;DHT22;67177;47.240;-1.546;2023-09-19T08:11:50;18.60;73.20
77985;DHT22;67177;47.240;-1.546;2023-09-19T08:14:16;18.70;73.10
77985;DHT22;67177;47.240;-1.546;2023-09-19T08:16:41;18.80;72.90
77985;DHT22;67177;47.240;-1.546;2023-09-19T08:19:09;19.00;72.70
77985;DHT22;67177;47.240;-1.546;2023-09-19T08:21:35;19.10;72.60
77985;DHT22;67177;47.240;-1.546;2023-09-19T08:24:02;19.20;72.20
77985;DHT22;67177;47.240;-1.546;2023-09-19T08:26:30;19.60;71.80
77985;DHT22;67177;47.240;-1.546;2023-09-19T08:28:57;19.80;71.30
77985;DHT22;67177;47.240;-1.546;2023-09-19T08:31:22;19.90;71.10
77985;DHT22;67177;47.240;-1.546;2023-09-19T08:33:49;20.00;70.90
77985;DHT22;67177;47.240;-1.546;2023-09-19T08:36:16;20.10;70.70
77985;DHT22;67177;47.240;-1.546;2023-09-19T08:38:42;20.30;70.40
77985;DHT22;67177;47.240;-1.546;2023-09-19T08:41:08;20.30;70.20
77985;DHT22;67177;47.240;-1.546;2023-09-19T08:43:34;20.40;69.80
77985;DHT22;67177;47.240;-1.546;2023-09-19T08:46:20;20.40;69.60
77985;DHT22;67177;47.240;-1.546;2023-09-19T08:49:24;20.50;69.60
77985;DHT22;67177;47.240;-1.546;2023-09-19T08:52:05;20.50;69.40
77985;DHT22;67177;47.240;-1.546;2023-09-19T08:54:37;20.50;69.20
77985;DHT22;67177;47.240;-1.546;2023-09-19T08:57:07;20.60;69.00
77985;DHT22;67177;47.240;-1.546;2023-09-19T08:59:38;20.70;68.70
77985;DHT22;67177;47.240;-1.546;2023-09-19T09:02:11;20.90;68.50
77985;DHT22;67177;47.240;-1.546;2023-09-19T09:04:42;21.00;68.30
77985;DHT22;67177;47.240;-1.546;2023-09-19T09:07:12;21.10;67.90
77985;DHT22;67177;47.240;-1.546;2023-09-19T09:09:44;21.00;67.70
77985;DHT22;67177;47.240;-1.546;2023-09-19T09:12:14;21.00;67.60
77985;DHT22;67177;47.240;-1.546;2023-09-19T09:14:45;21.00;67.50
77985;DHT22;67177;47.240;-1.546;2023-09-19T09:17:11;21.00;67.60
77985;DHT22;67177;47.240;-1.546;2023-09-19T09:19:37;20.90;67.50
77985;DHT22;67177;47.240;-1.546;2023-09-19T09:22:10;20.90;67.40
77985;DHT22;67177;47.240;-1.546;2023-09-19T09:24:36;20.80;67.40
77985;DHT22;67177;47.240;-1.546;2023-09-19T09:27:05;20.70;67.70
77985;DHT22;67177;47.240;-1.546;2023-09-19T09:29:50;20.50;68.00
77985;DHT22;67177;47.240;-1.546;2023-09-19T09:32:19;20.30;68.40
77985;DHT22;67177;47.240;-1.546;2023-09-19T09:34:52;20.20;68.70
77985;DHT22;67177;47.240;-1.546;2023-09-19T09:37:18;20.20;68.80
77985;DHT22;67177;47.240;-1.546;2023-09-19T09:40:01;20.40;69.00
77985;DHT22;67177;47.240;-1.546;2023-09-19T09:42:42;20.50;69.30
77985;DHT22;67177;47.240;-1.546;2023-09-19T09:47:44;20.80;69.30
77985;DHT22;67177;47.240;-1.546;2023-09-19T09:50:29;20.90;69.50
77985;DHT22;67177;47.240;-1.546;2023-09-19T09:53:05;21.00;69.60
77985;DHT22;67177;47.240;-1.546;2023-09-19T09:55:59;21.10;69.60
77985;DHT22;67177;47.240;-1.546;2023-09-19T09:58:25;21.10;69.60
77985;DHT22;67177;47.240;-1.546;2023-09-19T10:00:56;21.20;69.50
77985;DHT22;67177;47.240;-1.546;2023-09-19T10:03:38;21.20;69.40
77985;DHT22;67177;47.240;-1.546;2023-09-19T10:06:11;21.20;69.50
77985;DHT22;67177;47.240;-1.546;2023-09-19T10:08:59;21.10;69.20
77985;DHT22;67177;47.240;-1.546;2023-09-19T10:12:06;21.00;69.40
77985;DHT22;67177;47.240;-1.546;2023-09-19T10:14:38;21.10;69.10
77985;DHT22;67177;47.240;-1.546;2023-09-19T10:17:10;21.10;68.90
77985;DHT22;67177;47.240;-1.546;2023-09-19T10:19:55;21.20;69.00
77985;DHT22;67177;47.240;-1.546;2023-09-19T10:22:24;21.20;68.80
77985;DHT22;67177;47.240;-1.546;2023-09-19T10:24:53;21.20;68.50
77985;DHT22;67177;47.240;-1.546;2023-09-19T10:27:20;21.20;68.20
77985;DHT22;67177;47.240;-1.546;2023-09-19T10:29:51;21.10;67.10
77985;DHT22;67177;47.240;-1.546;2023-09-19T10:32:22;20.90;67.20
77985;DHT22;67177;47.240;-1.546;2023-09-19T10:34:49;20.90;67.10
77985;DHT22;67177;47.240;-1.546;2023-09-19T10:37:18;20.90;66.80
77985;DHT22;67177;47.240;-1.546;2023-09-19T10:39:48;21.00;66.60
77985;DHT22;67177;47.240;-1.546;2023-09-19T10:42:19;21.00;66.20
77985;DHT22;67177;47.240;-1.546;2023-09-19T10:44:50;20.90;66.00
77985;DHT22;67177;47.240;-1.546;2023-09-19T10:47:19;20.90;66.00
77985;DHT22;67177;47.240;-1.546;2023-09-19T10:49:46;21.10;65.40
77985;DHT22;67177;47.240;-1.546;2023-09-19T10:52:14;21.40;65.10
77985;DHT22;67177;47.240;-1.546;2023-09-19T10:54:48;21.80;64.50
77985;DHT22;67177;47.240;-1.546;2023-09-19T10:57:24;21.90;64.20
77985;DHT22;67177;47.240;-1.546;2023-09-19T11:00:08;22.20;62.80
77985;DHT22;67177;47.240;-1.546;2023-09-19T11:03:17;22.20;62.50
77985;DHT22;67177;47.240;-1.546;2023-09-19T11:06:09;22.30;62.40
77985;DHT22;67177;47.240;-1.546;2023-09-19T11:30:35;23.00;60.60
77985;DHT22;67177;47.240;-1.546;2023-09-19T11:36:04;23.00;60.50
77985;DHT22;67177;47.240;-1.546;2023-09-19T11:43:46;22.80;60.40
77985;DHT22;67177;47.240;-1.546;2023-09-19T11:46:12;22.60;60.40
77985;DHT22;67177;47.240;-1.546;2023-09-19T11:48:43;22.50;60.30
77985;DHT22;67177;47.240;-1.546;2023-09-19T11:51:13;22.60;60.60
77985;DHT22;67177;47.240;-1.546;2023-09-19T11:53:46;22.80;60.50
77985;DHT22;67177;47.240;-1.546;2023-09-19T11:56:18;22.90;60.50
77985;DHT22;67177;47.240;-1.546;2023-09-19T11:58:46;22.90;60.30
77985;DHT22;67177;47.240;-1.546;2023-09-19T12:01:33;22.90;60.40
77985;DHT22;67177;47.240;-1.546;2023-09-19T12:04:02;23.00;60.50
77985;DHT22;67177;47.240;-1.546;2023-09-19T12:06:30;23.10;60.30
77985;DHT22;67177;47.240;-1.546;2023-09-19T12:08:57;23.10;60.00
77985;DHT22;67177;47.240;-1.546;2023-09-19T12:11:28;23.10;59.80
77985;DHT22;67177;47.240;-1.546;2023-09-19T12:13:59;23.20;59.50
77985;DHT22;67177;47.240;-1.546;2023-09-19T12:16:27;23.20;59.60
77985;DHT22;67177;47.240;-1.546;2023-09-19T12:18:56;23.20;59.80
77985;DHT22;67177;47.240;-1.546;2023-09-19T12:21:26;23.30;60.10
77985;DHT22;67177;47.240;-1.546;2023-09-19T12:24:04;23.10;60.50
77985;DHT22;67177;47.240;-1.546;2023-09-19T12:26:45;22.90;60.70
77985;DHT22;67177;47.240;-1.546;2023-09-19T12:29:13;23.00;60.80
77985;DHT22;67177;47.240;-1.546;2023-09-19T12:31:58;23.00;60.70
77985;DHT22;67177;47.240;-1.546;2023-09-19T12:34:28;23.10;61.00
77985;DHT22;67177;47.240;-1.546;2023-09-19T12:37:14;23.20;61.20
77985;DHT22;67177;47.240;-1.546;2023-09-19T12:40:04;23.10;61.40
77985;DHT22;67177;47.240;-1.546;2023-09-19T12:42:41;22.90;61.80
77985;DHT22;67177;47.240;-1.546;2023-09-19T12:45:08;22.70;62.20
77985;DHT22;67177;47.240;-1.546;2023-09-19T12:47:39;22.70;62.60
77985;DHT22;67177;47.240;-1.546;2023-09-19T12:50:09;22.80;62.70
77985;DHT22;67177;47.240;-1.546;2023-09-19T12:52:42;22.90;63.00
77985;DHT22;67177;47.240;-1.546;2023-09-19T12:55:23;23.00;63.10
77985;DHT22;67177;47.240;-1.546;2023-09-19T13:00:21;23.00;63.20
77985;DHT22;67177;47.240;-1.546;2023-09-19T13:03:12;23.00;63.20
77985;DHT22;67177;47.240;-1.546;2023-09-19T13:05:51;23.00;63.40
77985;DHT22;67177;47.240;-1.546;2023-09-19T13:08:26;22.80;63.40
77985;DHT22;67177;47.240;-1.546;2023-09-19T13:11:11;22.60;63.70
77985;DHT22;67177;47.240;-1.546;2023-09-19T13:13:49;22.40;64.10
77985;DHT22;67177;47.240;-1.546;2023-09-19T13:16:19;22.20;64.60
77985;DHT22;67177;47.240;-1.546;2023-09-19T13:18:54;22.10;65.10
77985;DHT22;67177;47.240;-1.546;2023-09-19T13:21:48;22.00;65.60
77985;DHT22;67177;47.240;-1.546;2023-09-19T13:24:20;22.20;65.80
77985;DHT22;67177;47.240;-1.546;2023-09-19T13:26:46;22.30;66.10
77985;DHT22;67177;47.240;-1.546;2023-09-19T13:29:12;22.30;66.00
77985;DHT22;67177;47.240;-1.546;2023-09-19T13:31:39;22.40;65.80
77985;DHT22;67177;47.240;-1.546;2023-09-19T13:34:07;22.50;65.70
77985;DHT22;67177;47.240;-1.546;2023-09-19T13:36:33;22.60;65.30
77985;DHT22;67177;47.240;-1.546;2023-09-19T13:38:59;22.50;64.70
77985;DHT22;67177;47.240;-1.546;2023-09-19T13:41:25;22.40;64.70
77985;DHT22;67177;47.240;-1.546;2023-09-19T13:43:51;22.50;64.80
77985;DHT22;67177;47.240;-1.546;2023-09-19T13:46:18;22.50;64.60
77985;DHT22;67177;47.240;-1.546;2023-09-19T13:48:51;22.50;64.40
77985;DHT22;67177;47.240;-1.546;2023-09-19T13:51:20;22.60;64.50
77985;DHT22;67177;47.240;-1.546;2023-09-19T13:53:48;22.60;64.60
77985;DHT22;67177;47.240;-1.546;2023-09-19T13:56:16;22.60;64.60
77985;DHT22;67177;47.240;-1.546;2023-09-19T13:58:41;22.70;64.50
77985;DHT22;67177;47.240;-1.546;2023-09-19T14:01:07;22.70;64.50
77985;DHT22;67177;47.240;-1.546;2023-09-19T14:03:38;22.70;64.60
77985;DHT22;67177;47.240;-1.546;2023-09-19T14:06:04;22.70;64.70
77985;DHT22;67177;47.240;-1.546;2023-09-19T14:08:29;22.60;64.70
77985;DHT22;67177;47.240;-1.546;2023-09-19T14:10:56;22.50;64.60
77985;DHT22;67177;47.240;-1.546;2023-09-19T14:13:21;22.60;64.40
77985;DHT22;67177;47.240;-1.546;2023-09-19T14:15:47;22.70;64.40
77985;DHT22;67177;47.240;-1.546;2023-09-19T14:18:13;22.70;64.10
77985;DHT22;67177;47.240;-1.546;2023-09-19T14:20:39;22.80;63.70
77985;DHT22;67177;47.240;-1.546;2023-09-19T14:23:07;22.70;63.30
77985;DHT22;67177;47.240;-1.546;2023-09-19T14:25:36;22.60;63.00
77985;DHT22;67177;47.240;-1.546;2023-09-19T14:28:04;22.50;62.60
77985;DHT22;67177;47.240;-1.546;2023-09-19T14:30:30;22.50;62.70
77985;DHT22;67177;47.240;-1.546;2023-09-19T14:32:57;22.40;62.40
77985;DHT22;67177;47.240;-1.546;2023-09-19T14:35:23;22.40;62.10
77985;DHT22;67177;47.240;-1.546;2023-09-19T14:37:49;22.40;62.00
77985;DHT22;67177;47.240;-1.546;2023-09-19T14:40:14;22.40;62.00
77985;DHT22;67177;47.240;-1.546;2023-09-19T14:42:43;22.40;61.90
77985;DHT22;67177;47.240;-1.546;2023-09-19T14:45:11;22.40;61.80
77985;DHT22;67177;47.240;-1.546;2023-09-19T14:47:37;22.50;61.40
77985;DHT22;67177;47.240;-1.546;2023-09-19T14:50:03;22.40;61.00
77985;DHT22;67177;47.240;-1.546;2023-09-19T14:52:33;22.50;60.90
77985;DHT22;67177;47.240;-1.546;2023-09-19T14:55:00;22.40;60.80
77985;DHT22;67177;47.240;-1.546;2023-09-19T14:57:26;22.40;60.60
77985;DHT22;67177;47.240;-1.546;2023-09-19T14:59:51;22.30;60.80
77985;DHT22;67177;47.240;-1.546;2023-09-19T15:02:17;22.30;60.70
77985;DHT22;67177;47.240;-1.546;2023-09-19T15:04:43;22.30;60.70
77985;DHT22;67177;47.240;-1.546;2023-09-19T15:07:13;22.30;60.70
77985;DHT22;67177;47.240;-1.546;2023-09-19T15:09:43;22.40;60.90
77985;DHT22;67177;47.240;-1.546;2023-09-19T15:12:09;22.40;60.80
77985;DHT22;67177;47.240;-1.546;2023-09-19T15:14:36;22.40;60.80
77985;DHT22;67177;47.240;-1.546;2023-09-19T15:17:02;22.50;60.90
77985;DHT22;67177;47.240;-1.546;2023-09-19T15:19:30;22.50;61.00
77985;DHT22;67177;47.240;-1.546;2023-09-19T15:21:56;22.50;61.10
77985;DHT22;67177;47.240;-1.546;2023-09-19T15:24:23;22.60;61.20
77985;DHT22;67177;47.240;-1.546;2023-09-19T15:26:48;22.60;61.30
77985;DHT22;67177;47.240;-1.546;2023-09-19T15:29:15;22.60;61.20
77985;DHT22;67177;47.240;-1.546;2023-09-19T15:31:41;22.60;61.00
77985;DHT22;67177;47.240;-1.546;2023-09-19T15:34:07;22.60;60.90
77985;DHT22;67177;47.240;-1.546;2023-09-19T15:36:33;22.60;61.00
77985;DHT22;67177;47.240;-1.546;2023-09-19T15:39:03;22.50;60.90
77985;DHT22;67177;47.240;-1.546;2023-09-19T15:41:35;22.50;61.00
77985;DHT22;67177;47.240;-1.546;2023-09-19T15:44:03;22.50;61.10
77985;DHT22;67177;47.240;-1.546;2023-09-19T15:46:30;22.40;61.10
77985;DHT22;67177;47.240;-1.546;2023-09-19T15:48:57;22.40;61.10
77985;DHT22;67177;47.240;-1.546;2023-09-19T15:51:24;22.30;61.20
77985;DHT22;67177;47.240;-1.546;2023-09-19T15:53:51;22.20;61.40
77985;DHT22;67177;47.240;-1.546;2023-09-19T15:56:18;22.10;61.60
77985;DHT22;67177;47.240;-1.546;2023-09-19T15:58:47;22.10;61.50
77985;DHT22;67177;47.240;-1.546;2023-09-19T16:01:14;22.00;61.70
77985;DHT22;67177;47.240;-1.546;2023-09-19T16:03:45;22.00;61.90
77985;DHT22;67177;47.240;-1.546;2023-09-19T16:06:16;21.90;62.00
77985;DHT22;67177;47.240;-1.546;2023-09-19T16:08:50;21.80;62.30
77985;DHT22;67177;47.240;-1.546;2023-09-19T16:11:17;21.70;62.70
77985;DHT22;67177;47.240;-1.546;2023-09-19T16:13:43;21.60;63.10